Time;durP1;ratioP1;P1;durP2;ratioP2;P2;SDS_P1;SDS_P2;PMS_P1;PMS_P2;Temp;Humidity;BMP_temperature;BMP_pressure;BME280_temperature;BME280_humidity;BME280_pressure;Samples;Min_cycle;Max_cycle;Signal;HPM_P1;HPM_P2
2022/05/20 00:00:08;;;;;;;39.25;34.47;;;;;;;17.92;72.32;100168.69;5010519;28;20121;-63
2022/05/20 00:02:33;;;;;;;36.33;31.77;;;;;;;17.85;72.51;100170.09;5009817;28;20121;-61
2022/05/20 00:04:59;;;;;;;36.20;31.73;;;;;;;17.84;72.53;100165.69;5010277;28;20053;-56
2022/05/20 00:07:25;;;;;;;40.45;32.75;;;;;;;17.82;72.64;100168.50;5010296;28;20489;-58
2022/05/20 00:09:51;;;;;;;37.28;33.05;;;;;;;17.82;72.87;100157.84;5010035;28;20041;-58
2022/05/20 00:12:17;;;;;;;40.40;33.83;;;;;;;17.78;72.73;100150.97;5009828;28;20046;-60
2022/05/20 00:14:43;;;;;;;39.88;32.30;;;;;;;17.73;73.15;100153.13;5009834;28;20130;-62
2022/05/20 00:17:08;;;;;;;36.38;31.50;;;;;;;17.71;72.93;100160.38;5009385;28;20113;-61
2022/05/20 00:19:34;;;;;;;39.00;34.75;;;;;;;17.64;73.16;100154.63;5009747;28;20500;-63
2022/05/20 00:22:00;;;;;;;42.15;36.85;;;;;;;17.52;73.54;100147.53;5007753;28;20034;-63
2022/05/20 00:24:26;;;;;;;37.65;30.02;;;;;;;17.43;74.15;100146.41;5009043;28;20049;-61
2022/05/20 00:26:51;;;;;;;37.72;30.30;;;;;;;17.45;74.15;100156.94;5009204;28;20034;-63
2022/05/20 00:29:17;;;;;;;40.13;30.40;;;;;;;17.48;74.18;100157.59;5008135;28;20378;-63
2022/05/20 00:31:43;;;;;;;34.83;27.52;;;;;;;17.52;73.34;100159.06;5008963;28;20705;-64
2022/05/20 00:34:09;;;;;;;35.75;28.80;;;;;;;17.51;73.33;100159.16;5009012;28;20104;-60
2022/05/20 00:36:34;;;;;;;36.13;31.77;;;;;;;17.46;72.93;100156.00;5009110;28;20042;-61
2022/05/20 00:39:00;;;;;;;37.20;32.95;;;;;;;17.39;73.27;100160.91;5009224;28;20486;-63
2022/05/20 00:41:25;;;;;;;41.50;32.42;;;;;;;17.34;73.34;100152.38;5008769;28;20057;-62
2022/05/20 00:43:51;;;;;;;39.25;32.30;;;;;;;17.31;73.44;100148.13;5009349;28;20512;-61
2022/05/20 00:46:25;;;;;;;36.42;31.60;;;;;;;17.32;73.36;100147.16;5008656;28;20045;-62
2022/05/20 00:49:07;;;;;;;40.05;34.05;;;;;;;17.32;73.28;100148.97;5008913;28;20045;-63
2022/05/20 00:51:38;;;;;;;32.92;29.25;;;;;;;17.29;72.77;100139.38;5008928;28;20073;-63
2022/05/20 00:54:09;;;;;;;30.90;27.10;;;;;;;17.29;72.61;100150.03;5009099;28;20034;-63
2022/05/20 00:56:41;;;;;;;30.05;25.67;;;;;;;17.24;72.24;100136.19;5008158;28;20513;-61
2022/05/20 00:59:10;;;;;;;30.42;25.42;;;;;;;17.23;72.06;100137.19;5008692;28;20118;-63
2022/05/20 01:01:36;;;;;;;32.22;27.23;;;;;;;17.23;71.79;100139.84;5014391;28;20086;-63
2022/05/20 01:04:04;;;;;;;31.67;23.88;;;;;;;17.24;71.40;100138.03;5017674;28;20041;-62
2022/05/20 01:06:29;;;;;;;31.25;23.48;;;;;;;17.21;71.37;100135.59;5008328;28;20042;-63
2022/05/20 01:08:54;;;;;;;25.80;21.10;;;;;;;17.23;71.18;100138.97;5008441;28;20030;-63
2022/05/20 01:11:20;;;;;;;27.20;24.27;;;;;;;17.24;71.16;100130.88;5007123;28;20681;-62
2022/05/20 01:13:48;;;;;;;24.63;20.65;;;;;;;17.31;70.81;100129.47;5008666;28;20095;-62
2022/05/20 01:16:15;;;;;;;28.23;22.98;;;;;;;17.35;70.41;100133.63;5008462;28;20034;-63
2022/05/20 01:18:45;;;;;;;28.38;23.40;;;;;;;17.31;70.47;100129.47;5008554;28;20061;-63
2022/05/20 01:21:10;;;;;;;30.92;21.95;;;;;;;17.34;69.93;100133.72;5006984;28;20952;-61
2022/05/20 01:23:37;;;;;;;28.27;23.38;;;;;;;17.33;70.28;100138.22;5009098;28;20133;-61
2022/05/20 01:26:05;;;;;;;28.88;24.35;;;;;;;17.31;69.91;100133.97;5008506;28;20038;-66
2022/05/20 01:28:32;;;;;;;26.45;22.50;;;;;;;17.31;69.84;100125.97;5008609;28;20041;-64
2022/05/20 01:31:01;;;;;;;25.52;21.38;;;;;;;17.33;69.75;100127.56;5008273;28;20150;-63
2022/05/20 01:33:31;;;;;;;27.48;20.88;;;;;;;17.34;69.41;100131.91;5008103;28;20599;-62
2022/05/20 01:35:58;;;;;;;30.77;19.38;;;;;;;17.36;69.05;100129.16;5007705;28;20038;-59
2022/05/20 01:38:23;;;;;;;26.40;20.80;;;;;;;17.34;68.54;100129.25;5008086;28;20045;-63
2022/05/20 01:41:14;;;;;;;27.73;20.10;;;;;;;17.36;68.85;100137.13;5014500;28;20038;-62
2022/05/20 01:44:08;;;;;;;29.58;23.73;;;;;;;17.32;68.23;100123.16;5012047;28;20049;-61
2022/05/20 01:46:36;;;;;;;24.98;21.50;;;;;;;17.22;68.84;100126.63;4991683;28;20401;-62
2022/05/20 01:49:15;;;;;;;32.05;22.35;;;;;;;17.17;69.59;100118.94;5005207;28;20042;-64
2022/05/20 01:51:44;;;;;;;31.08;24.88;;;;;;;17.19;70.11;100117.03;5005173;28;20132;-62
2022/05/20 01:54:19;;;;;;;40.33;26.13;;;;;;;17.22;70.66;100116.81;5007714;28;20050;-63
2022/05/20 01:56:51;;;;;;;25.02;21.17;;;;;;;17.29;70.21;100109.22;5007260;28;20599;-63
2022/05/20 01:59:32;;;;;;;35.70;28.48;;;;;;;17.30;70.59;100103.81;5005495;28;20038;-63
2022/05/20 02:02:09;;;;;;;34.63;28.55;;;;;;;17.22;71.64;100092.81;5007163;28;20038;-60
2022/05/20 02:04:43;;;;;;;35.03;28.23;;;;;;;17.12;72.10;100094.44;5007109;28;20080;-58
2022/05/20 02:07:16;;;;;;;40.85;32.10;;;;;;;16.98;72.96;100087.44;5007390;28;20085;-62
2022/05/20 02:09:52;;;;;;;35.90;28.48;;;;;;;16.89;73.43;100078.28;5007040;28;20502;-62
2022/05/20 02:12:22;;;;;;;35.70;29.75;;;;;;;16.83;73.76;100073.38;5007863;28;20048;-62
2022/05/20 02:15:09;;;;;;;37.17;29.00;;;;;;;16.86;73.44;100075.84;5007672;28;20107;-61
2022/05/20 02:17:43;;;;;;;38.97;29.27;;;;;;;16.90;73.35;100068.50;5007326;28;20041;-60
2022/05/20 02:20:48;;;;;;;32.60;25.27;;;;;;;16.89;73.10;100067.66;5007289;28;20045;-62
2022/05/20 02:23:21;;;;;;;35.60;27.30;;;;;;;16.88;72.45;100070.41;4984867;28;20176;-61
2022/05/20 02:25:55;;;;;;;34.25;27.77;;;;;;;16.81;72.66;100078.00;4984995;28;20050;-63
2022/05/20 02:28:31;;;;;;;34.70;28.25;;;;;;;16.82;72.86;100066.38;5009359;28;20081;-61
2022/05/20 02:30:58;;;;;;;;;;;;;;;16.82;72.76;100065.53;5030401;28;20061;-60
2022/05/20 02:33:26;;;;;;;36.47;28.45;;;;;;;16.84;72.86;100059.13;5027567;28;20008;-63
2022/05/20 02:35:52;;;;;;;38.13;27.40;;;;;;;16.77;72.94;100071.13;5020605;28;20030;-64
2022/05/20 02:38:21;;;;;;;36.30;29.92;;;;;;;16.77;73.01;100059.66;5024424;28;20041;-64
2022/05/20 02:40:49;;;;;;;38.60;27.98;;;;;;;16.78;72.90;100064.88;5026679;28;20048;-64
2022/05/20 02:43:15;;;;;;;32.78;27.65;;;;;;;16.78;72.76;100075.53;5026087;28;20095;-61
2022/05/20 02:45:43;;;;;;;30.00;25.45;;;;;;;16.80;72.81;100080.75;5021172;28;20037;-64
2022/05/20 02:48:09;;;;;;;35.58;27.88;;;;;;;16.82;73.10;100084.16;5014979;28;20125;-63
2022/05/20 02:50:34;;;;;;;30.98;25.90;;;;;;;16.84;72.31;100088.41;5014492;28;20549;-63
2022/05/20 02:53:00;;;;;;;34.60;24.10;;;;;;;16.87;72.70;100096.19;5013434;28;20033;-63
2022/05/20 02:55:25;;;;;;;33.13;24.95;;;;;;;16.90;72.60;100079.97;5013531;28;20564;-64
2022/05/20 02:57:51;;;;;;;35.38;27.35;;;;;;;16.87;72.86;100082.03;5009657;28;20041;-63
2022/05/20 03:04:09;;;;;;;37.40;27.52;;;;;;;16.83;72.95;100081.38;5007124;28;20128;-63
2022/05/20 03:05:55;;;;;;;34.85;26.98;;;;;;;16.86;73.29;100078.53;5003774;28;20057;-62
2022/05/20 03:08:21;;;;;;;31.98;26.90;;;;;;;16.86;73.24;100065.22;5004921;28;20069;-62
2022/05/20 03:10:46;;;;;;;36.78;29.90;;;;;;;16.80;73.79;100060.31;5006710;28;20121;-62
2022/05/20 03:13:12;;;;;;;39.63;31.25;;;;;;;16.78;74.11;100056.00;5006823;28;20034;-62
2022/05/20 03:15:39;;;;;;;34.55;28.48;;;;;;;16.77;74.46;100051.66;5007017;28;20042;-62
2022/05/20 03:18:09;;;;;;;35.67;29.23;;;;;;;16.79;73.94;100053.28;5006338;28;20033;-63
2022/05/20 03:20:37;;;;;;;39.13;29.17;;;;;;;16.82;74.01;100055.72;5006701;28;20042;-61
2022/05/20 03:23:02;;;;;;;40.95;29.95;;;;;;;16.85;74.01;100058.16;5013270;28;20038;-62
2022/05/20 03:25:28;;;;;;;35.17;28.67;;;;;;;16.83;74.62;100057.41;5020195;28;20559;-60
2022/05/20 03:27:53;;;;;;;35.42;27.73;;;;;;;16.87;74.24;100058.91;5012727;28;20044;-63
2022/05/20 03:30:19;;;;;;;46.42;28.70;;;;;;;16.94;73.79;100060.19;5005378;28;20561;-63
2022/05/20 03:32:45;;;;;;;40.35;30.02;;;;;;;16.98;73.62;100066.13;5008010;28;20582;-62
2022/05/20 03:35:12;;;;;;;39.92;31.63;;;;;;;16.90;73.72;100058.69;5010691;28;20038;-62
2022/05/20 03:37:37;;;;;;;36.72;29.65;;;;;;;16.89;74.12;100057.00;5009169;28;20037;-63
2022/05/20 03:40:03;;;;;;;44.17;32.90;;;;;;;16.83;74.04;100056.56;5010185;28;20049;-63
2022/05/20 03:42:29;;;;;;;40.53;28.67;;;;;;;16.85;74.18;100055.50;5009883;28;20046;-65
2022/05/20 03:44:54;;;;;;;43.17;32.13;;;;;;;16.81;74.15;100047.81;5009701;28;20052;-65
2022/05/20 03:47:20;;;;;;;39.10;29.92;;;;;;;16.76;74.61;100040.16;5009516;28;20038;-64
2022/05/20 03:49:46;;;;;;;36.08;30.00;;;;;;;16.72;74.96;100046.66;5009533;28;20130;-64
2022/05/20 03:52:12;;;;;;;39.85;31.80;;;;;;;16.71;74.88;100048.47;5009966;28;20482;-63
2022/05/20 03:54:38;;;;;;;44.28;33.97;;;;;;;16.69;75.09;100044.22;5010277;28;20030;-63
2022/05/20 03:57:05;;;;;;;48.65;31.83;;;;;;;16.68;74.75;100043.34;5009900;28;20030;-63
2022/05/20 03:59:33;;;;;;;40.67;32.22;;;;;;;16.70;75.09;100040.59;5010090;28;20037;-63
2022/05/20 04:01:59;;;;;;;38.55;32.85;;;;;;;16.68;75.18;100040.69;5010149;28;20042;-63
2022/05/20 04:04:33;;;;;;;35.03;27.63;;;;;;;16.71;75.20;100045.81;5010684;28;20048;-63
2022/05/20 04:07:03;;;;;;;42.53;32.97;;;;;;;16.71;75.29;100039.59;5010207;28;20084;-63
2022/05/20 04:09:28;;;;;;;45.72;33.15;;;;;;;16.62;75.89;100038.47;5009951;28;20096;-63
2022/05/20 04:11:56;;;;;;;42.58;33.25;;;;;;;16.60;75.93;100032.38;5009437;28;20034;-62
2022/05/20 04:14:23;;;;;;;43.63;33.53;;;;;;;16.63;75.86;100037.50;5009520;28;20049;-62
2022/05/20 04:16:56;;;;;;;38.40;29.88;;;;;;;16.69;75.74;100050.38;5009053;28;20061;-63
2022/05/20 04:19:25;;;;;;;42.63;30.23;;;;;;;16.72;76.07;100049.31;5009563;28;20408;-63
2022/05/20 04:21:52;;;;;;;44.45;33.83;;;;;;;16.69;76.40;100038.88;5009823;28;20040;-61
2022/05/20 04:24:19;;;;;;;47.30;35.90;;;;;;;16.69;75.94;100038.88;5010206;28;20038;-62
2022/05/20 04:26:45;;;;;;;51.50;38.25;;;;;;;16.65;76.33;100027.59;5010323;28;20116;-63
2022/05/20 04:29:10;;;;;;;50.63;36.53;;;;;;;16.66;76.45;100026.66;5009829;28;20120;-63
2022/05/20 04:31:40;;;;;;;50.83;37.65;;;;;;;16.69;76.39;100026.44;5009419;28;20037;-62
2022/05/20 04:34:06;;;;;;;57.20;40.75;;;;;;;16.70;76.93;100027.28;5007732;28;20030;-64
2022/05/20 04:36:31;;;;;;;54.90;39.13;;;;;;;16.72;77.04;100030.69;5008758;28;20052;-63
2022/05/20 04:38:56;;;;;;;63.20;41.85;;;;;;;16.70;76.93;100030.78;5009152;28;20073;-63
2022/05/20 04:46:58;;;;;;;71.63;48.47;;;;;;;16.66;77.40;100017.78;5007728;28;20088;-66
2022/05/20 04:49:30;;;;;;;62.15;43.63;;;;;;;16.67;77.42;100017.69;5008779;28;20069;-64
2022/05/20 04:51:55;;;;;;;62.90;44.55;;;;;;;16.66;78.12;100016.00;5008764;28;20044;-65
2022/05/20 04:57:07;;;;;;;69.15;47.20;;;;;;;16.58;78.17;100007.69;5008595;28;20056;-64
2022/05/20 04:59:38;;;;;;;59.72;40.15;;;;;;;16.64;78.04;100003.75;5008506;28;20050;-64
2022/05/20 05:02:04;;;;;;;65.53;45.53;;;;;;;16.65;77.84;100000.97;5008095;28;20125;-64
2022/05/20 05:04:30;;;;;;;61.65;41.17;;;;;;;16.66;78.37;100004.47;5008737;28;20040;-65
2022/05/20 05:06:55;;;;;;;67.85;47.85;;;;;;;16.71;78.25;99999.66;5008359;28;20038;-64
2022/05/20 05:09:21;;;;;;;63.22;45.50;;;;;;;16.80;77.54;99996.41;5008736;28;20517;-64
2022/05/20 05:11:47;;;;;;;72.97;48.35;;;;;;;16.83;77.97;99990.84;5008716;28;20053;-65
2022/05/20 05:14:15;;;;;;;63.90;45.03;;;;;;;16.79;78.23;99977.88;5008186;28;20044;-65
2022/05/20 05:16:41;;;;;;;64.07;44.63;;;;;;;16.83;78.53;99987.34;5008230;28;20030;-65
2022/05/20 05:19:07;;;;;;;69.13;42.40;;;;;;;16.89;78.26;99990.41;5008147;28;20045;-63
2022/05/20 05:21:32;;;;;;;73.78;46.47;;;;;;;16.96;77.77;99985.50;5008054;28;20772;-65
2022/05/20 05:24:00;;;;;;;58.55;43.72;;;;;;;17.00;77.71;99988.78;5007965;28;20216;-65
2022/05/20 05:26:30;;;;;;;61.42;41.22;;;;;;;17.01;77.58;99988.69;5007939;28;20038;-64
2022/05/20 05:28:56;;;;;;;53.92;41.58;;;;;;;16.99;77.37;99987.94;5007802;28;20101;-65
2022/05/20 05:31:22;;;;;;;65.50;43.28;;;;;;;16.99;77.88;99982.59;5007418;28;20172;-64
2022/05/20 05:33:47;;;;;;;66.47;42.78;;;;;;;17.05;77.46;99976.81;5007716;28;20115;-64
2022/05/20 05:36:13;;;;;;;50.92;36.08;;;;;;;17.12;77.66;99982.56;5007941;28;20065;-65
2022/05/20 05:38:38;;;;;;;53.50;40.83;;;;;;;17.25;76.35;99978.00;5008384;28;20045;-64
2022/05/20 05:41:04;;;;;;;57.75;37.17;;;;;;;17.27;76.41;99991.22;5007500;28;20045;-65
2022/05/20 05:43:29;;;;;;;43.95;35.63;;;;;;;17.28;76.87;99993.81;5007837;28;20033;-64
2022/05/20 05:45:55;;;;;;;52.17;37.92;;;;;;;17.42;76.23;99989.25;5007963;28;20460;-63
2022/05/20 05:48:20;;;;;;;46.72;34.50;;;;;;;17.48;75.85;99984.31;5007770;28;20052;-65
2022/05/20 05:50:46;;;;;;;43.20;32.65;;;;;;;17.60;75.72;99982.56;5007773;28;20034;-65
2022/05/20 05:53:14;;;;;;;55.42;40.10;;;;;;;17.64;75.33;99980.50;5007999;28;20065;-64
2022/05/20 05:55:42;;;;;;;54.28;38.30;;;;;;;17.64;75.67;99977.81;5007838;28;20042;-64
2022/05/20 05:58:09;;;;;;;56.85;39.67;;;;;;;17.73;75.83;99972.66;5007150;28;20044;-65
2022/05/20 06:00:34;;;;;;;55.25;36.58;;;;;;;17.80;75.84;99968.59;5007436;28;20809;-64
2022/05/20 06:02:59;;;;;;;52.05;36.35;;;;;;;17.90;75.44;99971.41;5007451;28;20025;-64
2022/05/20 06:05:25;;;;;;;61.13;46.10;;;;;;;17.94;75.11;99977.31;5007638;28;20128;-62
2022/05/20 06:07:51;;;;;;;54.90;41.13;;;;;;;17.96;75.26;99967.41;5006868;28;20046;-65
2022/05/20 06:10:17;;;;;;;64.95;45.97;;;;;;;18.00;75.40;99963.53;5007382;28;20042;-65
2022/05/20 06:12:43;;;;;;;58.28;42.80;;;;;;;18.14;74.80;99965.97;5007357;28;20038;-65
2022/05/20 06:15:14;;;;;;;61.45;45.97;;;;;;;18.31;74.31;99969.13;5008183;28;20044;-65
2022/05/20 06:17:39;;;;;;;60.42;42.10;;;;;;;18.22;74.88;99954.72;5007302;28;20217;-63
2022/05/20 06:20:05;;;;;;;61.17;46.35;;;;;;;18.22;75.12;99954.72;5006988;28;20287;-64
2022/05/20 06:22:31;;;;;;;59.45;45.15;;;;;;;18.17;75.35;99946.22;5006716;28;20503;-64
2022/05/20 06:24:56;;;;;;;55.35;40.50;;;;;;;18.26;75.32;99941.97;5007118;28;20050;-64
2022/05/20 06:27:21;;;;;;;56.80;42.85;;;;;;;18.37;74.79;99945.47;5007065;28;20053;-64
2022/05/20 06:29:48;;;;;;;50.97;39.58;;;;;;;18.45;74.73;99942.19;5006648;28;20044;-64
2022/05/20 06:32:14;;;;;;;52.63;40.10;;;;;;;18.57;74.11;99932.38;5006759;28;20093;-64
2022/05/20 06:40:15;;;;;;;45.10;35.22;;;;;;;18.91;73.13;99927.00;5006644;28;20095;-65
2022/05/20 06:42:42;;;;;;;42.78;32.33;;;;;;;19.06;72.76;99918.56;5006860;28;20459;-65
2022/05/20 06:45:09;;;;;;;47.10;35.40;;;;;;;19.14;71.91;99917.09;5006555;28;20420;-65
2022/05/20 06:47:34;;;;;;;42.63;34.78;;;;;;;19.23;71.25;99911.00;5006398;28;20038;-65
2022/05/20 06:49:59;;;;;;;46.65;35.03;;;;;;;19.34;71.20;99908.25;5005729;28;20040;-65
2022/05/20 06:52:24;;;;;;;47.40;39.78;;;;;;;19.33;71.04;99898.53;5006889;28;20561;-64
2022/05/20 06:54:50;;;;;;;53.42;37.08;;;;;;;19.41;70.94;99893.38;5006850;28;20038;-63
2022/05/20 06:57:19;;;;;;;38.55;30.95;;;;;;;19.61;70.56;99897.03;5006059;28;20038;-64
2022/05/20 06:59:44;;;;;;;37.47;31.95;;;;;;;19.86;70.05;99889.63;5008941;28;20053;-63
2022/05/20 07:02:10;;;;;;;39.42;29.10;;;;;;;20.05;68.93;99884.38;5010174;28;20061;-65
2022/05/20 07:04:36;;;;;;;35.75;28.58;;;;;;;20.30;68.59;99880.38;5007300;28;20548;-65
2022/05/20 07:07:03;;;;;;;47.35;32.90;;;;;;;20.46;67.67;99874.53;5008779;28;20044;-64
2022/05/20 07:09:29;;;;;;;44.67;31.90;;;;;;;20.46;67.31;99871.84;5008959;28;20159;-64
2022/05/20 07:11:55;;;;;;;43.33;34.80;;;;;;;20.61;66.92;99876.84;5009858;28;20038;-65
2022/05/20 07:14:21;;;;;;;39.10;33.03;;;;;;;20.80;66.10;99868.84;5006597;28;20129;-65
2022/05/20 07:16:50;;;;;;;40.00;28.70;;;;;;;20.99;65.62;99866.19;5006278;28;20121;-65
2022/05/20 07:19:16;;;;;;;30.77;26.25;;;;;;;21.41;64.76;99865.91;5006702;28;20430;-64
2022/05/20 07:21:41;;;;;;;29.25;24.27;;;;;;;21.90;63.40;99862.25;5007227;28;20042;-64
2022/05/20 07:24:08;;;;;;;27.25;23.67;;;;;;;22.26;62.43;99864.13;5004823;28;20082;-65
2022/05/20 07:26:34;;;;;;;32.10;26.30;;;;;;;22.62;60.47;99857.97;5006611;28;20268;-65
2022/05/20 07:29:00;;;;;;;29.70;26.45;;;;;;;22.83;59.54;99852.31;5006548;28;20062;-64
2022/05/20 07:31:25;;;;;;;30.52;24.15;;;;;;;22.90;59.31;99856.09;5006392;28;20069;-66
2022/05/20 07:33:51;;;;;;;24.30;21.58;;;;;;;22.99;59.69;99857.91;5006413;28;20046;-65
2022/05/20 07:36:17;;;;;;;30.88;23.92;;;;;;;23.26;58.30;99856.09;5005982;28;20042;-64
2022/05/20 07:38:43;;;;;;;34.28;24.50;;;;;;;23.12;58.62;99862.88;5006328;28;20096;-64
2022/05/20 07:41:09;;;;;;;26.00;23.27;;;;;;;23.09;58.82;99861.34;5006001;28;20476;-65
2022/05/20 07:43:34;;;;;;;29.48;23.23;;;;;;;23.13;58.35;99862.72;5006331;28;20502;-65
2022/05/20 07:46:00;;;;;;;24.00;19.85;;;;;;;23.20;58.63;99856.72;5005809;28;20072;-64
2022/05/20 07:48:25;;;;;;;194.45;50.75;;;;;;;23.23;58.44;99856.41;5006119;28;20072;-65
2022/05/20 07:51:05;;;;;;;29.00;25.15;;;;;;;23.05;58.55;99845.69;5006061;28;20044;-65
2022/05/20 07:53:36;;;;;;;33.30;23.73;;;;;;;22.85;59.13;99832.34;5006233;28;20046;-66
2022/05/20 07:56:11;;;;;;;31.00;24.58;;;;;;;22.75;59.33;99834.28;5006175;28;20034;-65
2022/05/20 07:58:44;;;;;;;27.33;21.85;;;;;;;22.65;59.68;99831.66;5006248;28;20428;-63
2022/05/20 08:01:09;;;;;;;24.27;21.75;;;;;;;22.67;59.69;99836.88;5006267;28;20034;-65
2022/05/20 08:06:22;;;;;;;26.45;23.45;;;;;;;22.94;59.00;99830.59;5005778;28;20057;-64
2022/05/20 08:08:48;;;;;;;25.33;22.25;;;;;;;23.06;58.74;99825.84;5005129;28;20531;-66
2022/05/20 08:11:13;;;;;;;26.48;18.98;;;;;;;22.92;59.54;99824.53;5005947;28;20042;-65
2022/05/20 08:13:38;;;;;;;24.55;21.73;;;;;;;22.90;59.66;99821.16;5005735;28;20033;-65
2022/05/20 08:16:05;;;;;;;23.40;20.90;;;;;;;23.07;58.68;99817.63;5004875;28;20198;-58
2022/05/20 08:18:30;;;;;;;18.73;16.75;;;;;;;23.22;59.06;99817.91;5005260;28;20034;-57
2022/05/20 08:20:56;;;;;;;23.67;19.27;;;;;;;23.41;58.04;99816.06;5008366;28;20045;-59
2022/05/20 08:23:21;;;;;;;20.23;16.13;;;;;;;23.55;58.09;99810.06;5009147;28;20037;-56
2022/05/20 08:25:47;;;;;;;28.98;21.27;;;;;;;23.68;56.84;99812.34;5008803;28;20038;-57
2022/05/20 08:28:12;;;;;;;21.38;16.55;;;;;;;23.72;57.76;99806.47;5009135;28;20402;-59
2022/05/20 08:30:37;;;;;;;20.38;18.02;;;;;;;23.63;57.43;99803.88;5009242;28;20469;-57
2022/05/20 08:33:03;;;;;;;24.90;17.27;;;;;;;23.76;57.39;99807.88;5008277;28;20219;-58
2022/05/20 08:35:28;;;;;;;21.75;17.63;;;;;;;24.09;56.15;99796.41;5007688;28;20041;-55
2022/05/20 08:37:54;;;;;;;23.45;20.52;;;;;;;24.06;56.44;99794.03;5008982;28;20037;-57
2022/05/20 08:40:29;;;;;;;24.20;18.35;;;;;;;24.06;56.46;99791.34;5009107;28;20042;-52
2022/05/20 08:42:57;;;;;;;26.25;19.48;;;;;;;24.30;55.92;99785.22;5006977;28;20048;-55
2022/05/20 08:45:25;;;;;;;29.08;18.02;;;;;;;24.28;56.38;99781.84;5000826;28;20065;-55
2022/05/20 08:47:52;;;;;;;22.15;19.15;;;;;;;24.45;56.04;99775.47;5008481;28;20092;-52
2022/05/20 08:50:26;;;;;;;20.63;18.35;;;;;;;24.50;55.54;99778.53;5005311;28;20041;-49
2022/05/20 08:52:56;;;;;;;23.30;19.08;;;;;;;24.55;55.27;99767.28;5006206;28;20486;-57
2022/05/20 08:55:22;;;;;;;23.85;18.42;;;;;;;24.86;55.75;99764.78;5006839;28;20042;-53
2022/05/20 08:57:57;;;;;;;24.48;20.58;;;;;;;25.36;55.01;99755.66;5008969;28;20080;-55
2022/05/20 09:00:23;;;;;;;20.38;15.57;;;;;;;25.94;54.16;99752.78;5007042;28;20045;-53
2022/05/20 09:02:49;;;;;;;22.55;16.48;;;;;;;26.28;52.42;99745.16;5008345;28;20699;-56
2022/05/20 09:05:19;;;;;;;22.15;19.75;;;;;;;26.85;50.04;99743.09;5011700;28;20104;-49
2022/05/20 09:08:13;;;;;;;17.85;13.38;;;;;;;27.30;49.56;99734.09;5011439;28;20062;-59
2022/05/20 09:10:50;;;;;;;23.70;16.52;;;;;;;27.51;48.95;99729.81;5010424;28;20044;-66
2022/05/20 09:15:43;;;;;;;19.67;15.48;;;;;;;28.06;46.87;99728.47;5011131;28;20073;-67
2022/05/20 09:16:16;;;;;;;16.48;13.95;;;;;;;28.55;45.68;99711.50;5010420;28;20121;-64
2022/05/20 09:18:44;;;;;;;14.13;12.15;;;;;;;29.45;43.98;99709.91;5008336;28;20068;-65
2022/05/20 09:21:33;;;;;;;12.55;11.15;;;;;;;30.14;41.86;99706.28;5008380;28;20120;-65
2022/05/20 09:24:05;;;;;;;13.73;12.32;;;;;;;30.20;41.41;99706.47;5008258;28;20045;-65
2022/05/20 09:26:37;;;;;;;14.73;10.27;;;;;;;30.89;39.50;99695.34;5007803;28;20049;-65
2022/05/20 09:29:10;;;;;;;16.00;9.95;;;;;;;31.25;38.72;99688.56;5008338;28;20034;-65
2022/05/20 09:31:48;;;;;;;10.10;8.40;;;;;;;31.61;37.58;99682.66;5008194;28;20049;-64
2022/05/20 09:34:25;;;;;;;14.63;9.23;;;;;;;32.14;37.14;99678.84;5008808;28;20042;-65
2022/05/20 09:37:00;;;;;;;17.35;13.90;;;;;;;32.54;37.26;99670.44;5006722;28;20042;-66
2022/05/20 09:39:32;;;;;;;14.88;11.38;;;;;;;32.78;37.48;99668.75;5008807;28;20421;-64
2022/05/20 09:42:07;;;;;;;11.77;9.52;;;;;;;32.32;37.20;99666.34;5009148;28;20100;-67
2022/05/20 09:44:45;;;;;;;13.63;12.20;;;;;;;32.14;37.58;99664.38;5008090;28;20050;-64
2022/05/20 09:47:59;;;;;;;11.07;9.00;;;;;;;32.07;37.65;99662.53;5007593;28;20117;-66
2022/05/20 09:50:33;;;;;;;15.40;8.35;;;;;;;31.09;38.85;99640.03;4927356;28;20043;-65
2022/05/20 09:53:21;;;;;;;11.57;10.43;;;;;;;31.18;38.77;99636.84;4995324;28;20041;-65
2022/05/20 09:55:47;;;;;;;14.73;11.35;;;;;;;31.11;39.49;99629.72;5007075;28;20041;-65
2022/05/20 09:58:27;;;;;;;11.63;10.43;;;;;;;31.49;38.63;99620.84;5008274;28;20040;-63
2022/05/20 10:00:53;;;;;;;21.27;13.73;;;;;;;30.98;39.53;99606.94;5006203;28;20049;-64
2022/05/20 10:03:30;;;;;;;14.02;12.25;;;;;;;30.85;40.13;99604.25;5007296;28;20045;-66
2022/05/20 10:06:04;;;;;;;14.88;11.35;;;;;;;30.69;40.88;99600.06;5007458;28;20462;-67
2022/05/20 10:08:46;;;;;;;12.05;10.43;;;;;;;30.23;41.58;99597.31;5007705;28;20048;-66
2022/05/20 10:11:24;;;;;;;13.93;10.73;;;;;;;29.58;43.10;99586.88;5008130;28;20061;-67
2022/05/20 10:14:04;;;;;;;13.55;11.95;;;;;;;29.26;44.06;99586.56;5006268;28;20486;-67
2022/05/20 10:16:41;;;;;;;12.85;10.35;;;;;;;29.00;43.89;99583.69;5008240;28;20052;-65
2022/05/20 10:19:54;;;;;;;32.50;13.50;;;;;;;28.65;44.84;99580.97;5008129;28;20055;-65
2022/05/20 10:22:44;;;;;;;15.07;11.95;;;;;;;28.77;44.64;99578.53;4997260;28;20069;-65
2022/05/20 10:25:12;;;;;;;18.80;12.45;;;;;;;28.51;45.56;99574.59;5007340;28;20049;-64
2022/05/20 10:28:10;;;;;;;14.85;10.05;;;;;;;28.38;45.98;99569.03;5006845;28;20400;-66
2022/05/20 10:33:31;;;;;;;18.65;11.95;;;;;;;27.34;48.39;99572.94;5007594;28;20056;-65
2022/05/20 10:36:14;;;;;;;20.88;17.35;;;;;;;27.04;49.58;99566.72;5006878;28;20635;-65
2022/05/20 10:38:44;;;;;;;22.35;17.05;;;;;;;26.82;50.69;99551.41;5007032;28;20049;-65
2022/05/20 10:41:22;;;;;;;21.67;18.02;;;;;;;27.23;49.83;99534.72;5007043;28;20073;-66
2022/05/20 10:50:27;;;;;;;26.48;14.85;;;;;;;28.81;46.32;99499.25;5006326;28;20053;-66
2022/05/20 10:53:18;;;;;;;15.75;13.32;;;;;;;28.74;46.42;99500.25;4987248;28;20038;-66
2022/05/20 10:56:15;;;;;;;16.90;12.55;;;;;;;28.69;46.83;99477.25;4987238;28;20066;-66
2022/05/20 10:58:43;;;;;;;17.45;11.68;;;;;;;28.72;47.38;99481.44;5005374;28;20096;-65
2022/05/20 11:01:43;;;;;;;24.27;16.15;;;;;;;28.40;48.10;99482.91;5006520;28;20076;-67
2022/05/20 11:04:08;;;;;;;17.05;13.50;;;;;;;27.99;49.64;99472.81;5006987;28;20070;-67
2022/05/20 11:06:49;;;;;;;15.63;13.45;;;;;;;27.85;50.59;99468.31;5006743;28;20409;-66
2022/05/20 11:09:24;;;;;;;15.82;12.52;;;;;;;27.64;50.64;99451.03;5007167;28;20058;-64
2022/05/20 11:11:59;;;;;;;;;;;;;;;27.30;51.16;99444.44;5006623;28;20082;-65
2022/05/20 11:14:32;;;;;;;18.02;16.13;;;;;;;27.10;52.25;99440.63;5006960;28;19948;-65
2022/05/20 11:17:28;;;;;;;20.30;17.25;;;;;;;26.42;53.64;99429.16;5006542;28;20057;-66
2022/05/20 11:20:06;;;;;;;18.92;13.82;;;;;;;26.30;54.05;99404.44;5006335;28;21014;-65
2022/05/20 11:23:10;;;;;;;20.80;17.17;;;;;;;26.10;54.85;99388.78;5006040;28;20097;-65
2022/05/20 11:25:54;;;;;;;21.80;15.75;;;;;;;25.86;55.79;99367.44;5006502;28;20141;-65
2022/05/20 11:28:38;;;;;;;20.00;13.57;;;;;;;25.67;56.12;99345.31;5006225;28;20041;-65
2022/05/20 11:31:14;;;;;;;20.55;14.07;;;;;;;25.57;56.72;99320.44;5006247;28;20387;-65
2022/05/20 11:33:54;;;;;;;16.15;12.57;;;;;;;25.57;56.81;99330.38;5006480;28;20037;-65
2022/05/20 11:36:28;;;;;;;20.65;15.65;;;;;;;25.53;56.98;99364.19;5005986;28;20041;-65
2022/05/20 11:39:12;;;;;;;17.20;12.68;;;;;;;25.50;58.00;99389.69;5006334;28;20037;-66
2022/05/20 11:41:56;;;;;;;16.35;13.15;;;;;;;25.55;58.37;99410.72;5006037;28;20045;-65
2022/05/20 11:44:42;;;;;;;11.65;9.10;;;;;;;25.57;58.73;99452.69;5006106;28;20072;-65
2022/05/20 11:47:36;;;;;;;7.43;5.30;;;;;;;25.53;55.39;99440.59;5006097;28;20045;-64
2022/05/20 11:50:38;;;;;;;8.63;5.78;;;;;;;25.59;55.52;99423.66;5005985;28;20042;-64
2022/05/20 11:53:13;;;;;;;12.60;5.53;;;;;;;25.57;54.85;99400.56;5006068;28;20041;-65
2022/05/20 11:55:49;;;;;;;;;;;;;;;25.55;55.87;99397.22;5010326;28;20041;-66
2022/05/20 11:58:41;;;;;;;8.70;5.68;;;;;;;25.40;57.07;99429.56;5009896;28;19918;-66